Hailar, China
Current Conditions -  °F | °C
As of 1:00 AM on Friday 24 Oct 2014 (Local Time) from UIAA Reporting Station
Scattered Clouds Scattered Clouds  
Wind Chill: 28°   Ceiling: Unl
Heat Index: 28°   Visibility: 6mi
Dew Point: 19°   Wind: 2mph
Humidity: 69%   Direction: NA
Pressure: 29.8"   Gusts: NA
Location:  49.23°N, 119.71°E
Report Text: UIAA 231700Z VRB01MPS 9999 SCT100 M02/M07 Q1009 NOSIG RMKQFE698 29CLRD70
Loading
Personal Weather Stations






























Interactive Weather Map
Tropical Storm Tracking
New forecast layout! Learn more

10-Day Weather Forecast

Advertisements
Track Severe Weather on mobile